createdAt,value
2024-01-07T00:01:15.571Z,7.60
2024-01-07T00:03:45.611Z,7.30
2024-01-07T00:06:14.180Z,7.10
2024-01-07T00:08:42.792Z,6.80
2024-01-07T00:11:11.207Z,6.60
2024-01-07T00:13:39.648Z,6.60
2024-01-07T00:16:08.535Z,6.30
2024-01-07T00:18:37.123Z,6.40
2024-01-07T00:21:07.497Z,6.30
2024-01-07T00:23:35.985Z,6.20
2024-01-07T00:26:04.965Z,6.20
2024-01-07T00:28:33.810Z,6.80
2024-01-07T00:31:02.314Z,7.10
2024-01-07T00:33:30.868Z,7.20
2024-01-07T00:35:59.468Z,6.90
2024-01-07T00:38:29.109Z,6.70
2024-01-07T00:40:57.541Z,6.80
2024-01-07T00:43:25.938Z,6.70
2024-01-07T00:45:54.515Z,6.60
2024-01-07T00:48:23.224Z,6.50
2024-01-07T00:50:51.728Z,6.80
2024-01-07T00:53:20.286Z,6.60
2024-01-07T00:55:50.071Z,6.70
2024-01-07T00:58:19.342Z,6.80
2024-01-07T01:00:47.924Z,6.80
2024-01-07T01:03:16.623Z,6.60
2024-01-07T01:05:45.284Z,6.70
2024-01-07T01:08:14.155Z,6.60
2024-01-07T01:10:42.637Z,6.70
2024-01-07T01:13:12.335Z,6.80
2024-01-07T01:15:40.814Z,7.20
2024-01-07T01:18:09.762Z,7.10
2024-01-07T01:20:38.317Z,7.10
2024-01-07T01:23:06.872Z,7.60
2024-01-07T01:25:37.082Z,7.20
2024-01-07T01:28:05.864Z,7.40
2024-01-07T01:30:35.712Z,7.90
2024-01-07T01:33:04.491Z,7.90
2024-01-07T01:35:33.154Z,7.80
2024-01-07T01:38:01.577Z,8.00
2024-01-07T01:40:30.052Z,7.80
2024-01-07T01:42:58.658Z,7.60
2024-01-07T01:45:27.156Z,8.30
2024-01-07T01:47:57.629Z,7.90
2024-01-07T01:50:27.513Z,7.90
2024-01-07T01:52:57.477Z,7.70
2024-01-07T01:55:26.470Z,8.40
2024-01-07T01:57:57.344Z,8.00
2024-01-07T02:00:26.050Z,8.10
2024-01-07T02:02:54.712Z,8.50
2024-01-07T02:05:24.680Z,9.10
2024-01-07T02:07:53.233Z,8.70
2024-01-07T02:10:21.783Z,9.20
2024-01-07T02:12:50.740Z,8.60
2024-01-07T02:15:19.435Z,8.40
2024-01-07T02:17:47.879Z,8.10
2024-01-07T02:20:15.637Z,8.00
2024-01-07T02:22:45.364Z,7.90
2024-01-07T02:25:15.180Z,8.10
2024-01-07T02:27:43.734Z,8.00
2024-01-07T02:30:13.394Z,7.60
2024-01-07T02:32:41.977Z,7.70
2024-01-07T02:35:10.620Z,8.50
2024-01-07T02:37:39.165Z,7.80
2024-01-07T02:40:08.721Z,7.80
2024-01-07T02:42:38.326Z,7.30
2024-01-07T02:45:07.404Z,7.60
2024-01-07T02:47:35.858Z,8.30
2024-01-07T02:50:04.357Z,7.90
2024-01-07T02:52:32.833Z,8.90
2024-01-07T02:55:02.724Z,8.60
2024-01-07T02:57:31.299Z,8.30
2024-01-07T03:00:01.244Z,7.70
2024-01-07T03:02:29.794Z,7.60
2024-01-07T03:04:58.469Z,7.40
2024-01-07T03:07:26.941Z,7.50
2024-01-07T03:09:55.827Z,7.70
2024-01-07T03:12:24.396Z,7.20
2024-01-07T03:14:54.432Z,7.00
2024-01-07T03:17:25.379Z,6.80
2024-01-07T03:19:53.959Z,7.50
2024-01-07T03:22:22.533Z,7.40
2024-01-07T03:24:51.064Z,7.00
2024-01-07T03:27:19.468Z,7.10
2024-01-07T03:29:47.891Z,7.70
2024-01-07T03:32:16.470Z,7.00
2024-01-07T03:34:46.137Z,7.20
2024-01-07T03:37:14.658Z,7.60
2024-01-07T03:39:43.264Z,7.70
2024-01-07T03:42:12.988Z,7.70
2024-01-07T03:44:41.974Z,8.50
2024-01-07T03:47:10.509Z,8.90
2024-01-07T03:49:39.849Z,8.30
2024-01-07T03:52:10.194Z,7.60
2024-01-07T03:54:39.055Z,7.80
2024-01-07T03:57:07.699Z,7.90
2024-01-07T03:59:36.332Z,7.30
2024-01-07T04:02:04.987Z,7.20
2024-01-07T04:04:33.570Z,8.00
2024-01-07T04:07:02.075Z,7.60
2024-01-07T04:09:31.809Z,7.20
2024-01-07T04:12:00.398Z,7.00
2024-01-07T04:14:29.267Z,6.60
2024-01-07T04:16:57.749Z,7.20
2024-01-07T04:19:26.334Z,7.20
2024-01-07T04:21:54.955Z,7.30
2024-01-07T04:24:23.600Z,7.40
2024-01-07T04:26:53.327Z,7.90
2024-01-07T04:29:22.217Z,7.40
2024-01-07T04:31:50.849Z,7.40
2024-01-07T04:34:19.526Z,7.80
2024-01-07T04:36:49.156Z,7.60
2024-01-07T04:39:17.757Z,7.70
2024-01-07T04:41:46.309Z,8.00
2024-01-07T04:44:15.965Z,7.60
2024-01-07T04:46:44.496Z,7.60
2024-01-07T04:49:13.238Z,8.20
2024-01-07T04:51:41.878Z,8.80
2024-01-07T04:54:10.519Z,7.50
2024-01-07T04:56:38.978Z,7.20
2024-01-07T04:59:07.703Z,7.30
2024-01-07T05:01:37.565Z,7.20
2024-01-07T05:04:06.377Z,7.30
2024-01-07T05:06:35.211Z,8.10
2024-01-07T05:09:04.057Z,8.20
2024-01-07T05:11:32.495Z,7.60
2024-01-07T05:14:01.174Z,8.20
2024-01-07T05:16:29.595Z,8.50
2024-01-07T05:18:59.361Z,7.50
2024-01-07T05:21:28.116Z,8.20
2024-01-07T05:23:56.618Z,8.20
2024-01-07T05:26:25.326Z,8.00
2024-01-07T05:28:53.879Z,7.70
2024-01-07T05:31:22.495Z,8.10
2024-01-07T05:33:51.205Z,8.20
2024-01-07T05:36:21.016Z,8.10
2024-01-07T05:38:49.573Z,7.70
2024-01-07T05:41:18.135Z,7.70
2024-01-07T05:43:46.654Z,7.50
2024-01-07T05:46:15.229Z,7.20
2024-01-07T05:48:45.632Z,7.00
2024-01-07T05:51:14.919Z,6.60
2024-01-07T05:53:45.371Z,6.90
2024-01-07T05:56:14.226Z,6.80
2024-01-07T05:58:42.899Z,6.90
2024-01-07T06:01:11.604Z,7.30
2024-01-07T06:03:40.216Z,6.80
2024-01-07T06:06:08.975Z,6.80
2024-01-07T06:08:37.499Z,6.60
2024-01-07T06:11:07.299Z,6.50
2024-01-07T06:13:35.842Z,6.90
2024-01-07T06:16:04.631Z,6.80
2024-01-07T06:18:34.700Z,6.60
2024-01-07T06:21:05.388Z,6.70
2024-01-07T06:23:35.377Z,6.40
2024-01-07T06:26:07.720Z,6.40
2024-01-07T06:28:36.556Z,6.60
2024-01-07T06:31:06.499Z,6.40
2024-01-07T06:33:35.709Z,6.60
2024-01-07T06:36:05.238Z,7.20
2024-01-07T06:38:33.527Z,6.70
2024-01-07T06:41:05.094Z,6.70
2024-01-07T06:43:34.765Z,6.70
2024-01-07T06:46:03.446Z,6.50
2024-01-07T06:48:32.058Z,6.40
2024-01-07T06:51:00.503Z,6.60
2024-01-07T06:53:29.059Z,6.40
2024-01-07T06:55:57.328Z,6.60
2024-01-07T06:58:25.757Z,6.50
2024-01-07T07:00:55.691Z,6.20
2024-01-07T07:03:24.258Z,6.20
2024-01-07T07:05:52.910Z,6.40
2024-01-07T07:08:21.762Z,6.40
2024-01-07T07:10:50.145Z,6.30
2024-01-07T07:13:18.732Z,6.30
2024-01-07T07:15:47.421Z,6.20
2024-01-07T07:18:17.600Z,6.10
2024-01-07T07:20:46.133Z,6.10
2024-01-07T07:23:15.000Z,5.90
2024-01-07T07:25:43.399Z,5.90
2024-01-07T07:28:12.201Z,5.90
2024-01-07T07:30:40.912Z,5.80
2024-01-07T07:33:09.593Z,5.70
2024-01-07T07:35:41.199Z,5.80
2024-01-07T07:38:09.726Z,5.80
2024-01-07T07:40:38.245Z,5.80
2024-01-07T07:43:06.882Z,5.80
2024-01-07T07:45:35.624Z,5.80
2024-01-07T07:48:04.269Z,6.20
2024-01-07T07:50:33.231Z,6.00
2024-01-07T07:53:03.882Z,5.90
2024-01-07T07:55:32.400Z,5.80
2024-01-07T07:58:00.860Z,5.80
2024-01-07T08:00:29.506Z,5.70
2024-01-07T08:02:58.310Z,5.80
2024-01-07T08:05:27.034Z,6.00
2024-01-07T08:07:56.286Z,5.90
2024-01-07T08:10:25.956Z,5.90
2024-01-07T08:12:54.547Z,5.90
2024-01-07T08:15:23.035Z,5.90
2024-01-07T08:17:52.702Z,6.00
2024-01-07T08:20:21.585Z,5.80
2024-01-07T08:22:51.048Z,5.70
2024-01-07T08:25:19.761Z,5.70
2024-01-07T08:27:52.656Z,5.70
2024-01-07T08:30:21.690Z,5.70
2024-01-07T08:32:50.291Z,5.80
2024-01-07T08:35:20.711Z,5.70
2024-01-07T08:37:50.904Z,5.90
2024-01-07T08:40:20.276Z,5.70
2024-01-07T08:42:50.139Z,5.70
2024-01-07T08:45:20.081Z,5.50
2024-01-07T08:47:48.781Z,5.40
2024-01-07T08:50:17.451Z,5.40
2024-01-07T08:52:47.654Z,5.40
2024-01-07T08:55:16.803Z,5.30
2024-01-07T08:57:50.092Z,5.40
2024-01-07T09:00:20.733Z,5.40
2024-01-07T09:02:49.414Z,5.60
2024-01-07T09:05:17.844Z,5.30
2024-01-07T09:07:46.442Z,5.30
2024-01-07T09:10:15.506Z,5.60
2024-01-07T09:12:44.273Z,5.80
2024-01-07T09:15:12.860Z,5.70
2024-01-07T09:17:42.550Z,5.70
2024-01-07T09:20:12.461Z,5.60
2024-01-07T09:22:41.394Z,5.60
2024-01-07T09:25:10.321Z,5.70
2024-01-07T09:27:38.801Z,5.60
2024-01-07T09:30:08.113Z,5.70
2024-01-07T09:32:38.374Z,5.80
2024-01-07T09:35:08.985Z,6.20
2024-01-07T09:37:37.919Z,5.90
2024-01-07T09:40:07.714Z,6.00
2024-01-07T09:42:36.933Z,6.10
2024-01-07T09:45:06.670Z,5.80
2024-01-07T09:47:35.730Z,6.00
2024-01-07T09:50:04.666Z,5.80
2024-01-07T09:52:35.926Z,5.90
2024-01-07T09:55:06.192Z,5.90
2024-01-07T09:57:35.523Z,6.50
2024-01-07T10:00:05.945Z,6.70
2024-01-07T10:02:34.509Z,6.40
2024-01-07T10:05:02.882Z,6.60
2024-01-07T10:07:31.441Z,6.80
2024-01-07T10:10:12.053Z,7.50
2024-01-07T10:12:40.732Z,7.90
2024-01-07T10:15:09.912Z,7.10
2024-01-07T10:17:39.913Z,6.40
2024-01-07T10:20:11.074Z,6.40
2024-01-07T10:22:39.817Z,6.00
2024-01-07T10:25:10.072Z,5.80
2024-01-07T10:27:39.389Z,6.00
2024-01-07T10:30:09.013Z,5.80
2024-01-07T10:32:42.533Z,5.70
2024-01-07T10:35:17.063Z,6.50
2024-01-07T10:37:46.352Z,6.30
2024-01-07T10:40:17.390Z,5.90
2024-01-07T10:42:46.748Z,5.60
2024-01-07T10:45:16.209Z,5.60
2024-01-07T10:47:50.494Z,5.90
2024-01-07T10:50:19.909Z,6.10
2024-01-07T10:52:52.884Z,5.80
2024-01-07T10:55:27.546Z,5.70
2024-01-07T10:57:58.394Z,6.00
2024-01-07T11:00:26.897Z,5.70
2024-01-07T11:03:16.069Z,8.30
2024-01-07T11:05:51.265Z,7.10
2024-01-07T11:08:26.760Z,6.50
2024-01-07T11:11:05.798Z,5.70
2024-01-07T11:13:35.542Z,5.10
2024-01-07T11:16:05.024Z,4.80
2024-01-07T11:18:35.414Z,4.80
2024-01-07T11:21:04.373Z,4.60
2024-01-07T11:23:34.182Z,4.50
2024-01-07T11:26:04.337Z,4.60
2024-01-07T11:28:53.093Z,4.50
2024-01-07T11:31:23.368Z,4.50
2024-01-07T11:33:53.050Z,4.40
2024-01-07T11:36:22.142Z,4.40
2024-01-07T11:38:54.415Z,4.40
2024-01-07T11:41:26.994Z,4.40
2024-01-07T11:43:56.686Z,4.40
2024-01-07T11:46:25.939Z,4.30
2024-01-07T11:48:59.609Z,4.30
2024-01-07T11:51:28.915Z,4.40
2024-01-07T11:53:57.577Z,4.50
2024-01-07T11:56:28.332Z,4.40
2024-01-07T11:58:57.625Z,4.40
2024-01-07T12:01:27.740Z,4.40
2024-01-07T12:03:56.978Z,4.40
2024-01-07T12:06:26.372Z,4.50
2024-01-07T12:08:55.121Z,4.30
2024-01-07T12:11:24.707Z,4.30
2024-01-07T12:13:54.872Z,4.30
2024-01-07T12:16:23.467Z,4.30
2024-01-07T12:18:52.671Z,4.30
2024-01-07T12:21:24.160Z,4.30
2024-01-07T12:23:53.521Z,4.30
2024-01-07T12:26:22.823Z,4.40
2024-01-07T12:28:58.307Z,4.20
2024-01-07T12:31:28.174Z,4.30
2024-01-07T12:33:57.377Z,4.30
2024-01-07T12:36:26.030Z,4.20
2024-01-07T12:38:56.097Z,4.20
2024-01-07T12:41:25.034Z,4.20
2024-01-07T12:43:53.491Z,4.30
2024-01-07T12:46:23.513Z,4.20
2024-01-07T12:48:52.194Z,4.20
2024-01-07T12:51:24.228Z,4.10
2024-01-07T12:53:53.190Z,4.10
2024-01-07T12:56:21.719Z,4.10
2024-01-07T12:58:50.239Z,4.20
2024-01-07T13:01:18.841Z,4.00
2024-01-07T13:03:50.467Z,4.00
2024-01-07T13:06:19.526Z,4.10
2024-01-07T13:08:48.452Z,4.00
2024-01-07T13:11:17.968Z,4.00
2024-01-07T13:13:46.648Z,4.00
2024-01-07T13:16:15.066Z,4.00
2024-01-07T13:18:43.716Z,3.90
2024-01-07T13:21:13.529Z,3.90
2024-01-07T13:23:45.315Z,3.90
2024-01-07T13:26:13.878Z,3.90
2024-01-07T13:28:42.621Z,3.80
2024-01-07T13:31:13.487Z,3.90
2024-01-07T13:33:42.397Z,3.80
2024-01-07T13:36:13.991Z,3.80
2024-01-07T13:38:44.782Z,4.10
2024-01-07T13:41:15.276Z,4.40
2024-01-07T13:43:44.111Z,4.40
2024-01-07T13:46:13.032Z,4.50
2024-01-07T13:48:43.712Z,4.50
2024-01-07T13:51:13.893Z,4.60
2024-01-07T13:53:42.417Z,4.70
2024-01-07T13:56:10.837Z,4.70
2024-01-07T13:58:39.860Z,4.60
2024-01-07T14:01:08.864Z,5.00
2024-01-07T14:03:37.530Z,4.80
2024-01-07T14:06:06.830Z,4.90
2024-01-07T14:08:36.538Z,4.70
2024-01-07T14:11:05.033Z,4.60
2024-01-07T14:13:33.732Z,4.50
2024-01-07T14:16:02.881Z,4.60
2024-01-07T14:18:31.609Z,4.80
2024-01-07T14:21:00.351Z,5.00
2024-01-07T14:23:31.007Z,4.90
2024-01-07T14:26:00.842Z,4.50
2024-01-07T14:28:29.605Z,4.80
2024-01-07T14:30:59.163Z,4.70
2024-01-07T14:33:28.061Z,4.60
2024-01-07T14:35:56.672Z,4.60
2024-01-07T14:38:26.748Z,5.80
2024-01-07T14:40:55.330Z,5.10
2024-01-07T14:43:25.151Z,4.80
2024-01-07T14:45:53.718Z,4.60
2024-01-07T14:48:23.051Z,4.70
2024-01-07T14:50:52.749Z,5.10
2024-01-07T14:53:21.234Z,7.90
2024-01-07T14:55:49.643Z,8.60
2024-01-07T14:58:19.513Z,8.10
2024-01-07T15:00:49.922Z,6.50
2024-01-07T15:03:20.720Z,5.70
2024-01-07T15:05:49.436Z,5.30
2024-01-07T15:08:19.882Z,5.10
2024-01-07T15:10:48.403Z,5.00
2024-01-07T15:13:20.358Z,4.80
2024-01-07T15:15:51.194Z,4.60
2024-01-07T15:18:19.897Z,4.70
2024-01-07T15:20:48.382Z,4.70
2024-01-07T15:23:17.356Z,4.80
2024-01-07T15:25:46.410Z,4.80
2024-01-07T15:28:15.446Z,4.60
2024-01-07T15:30:44.169Z,4.60
2024-01-07T15:33:14.023Z,4.60
2024-01-07T15:35:42.574Z,4.50
2024-01-07T15:38:10.875Z,4.50
2024-01-07T15:40:39.424Z,4.50
2024-01-07T15:43:08.371Z,4.30
2024-01-07T15:45:36.969Z,5.10
2024-01-07T15:48:06.542Z,4.50
2024-01-07T15:50:36.531Z,4.30
2024-01-07T15:53:06.933Z,4.20
2024-01-07T15:55:37.113Z,4.50
2024-01-07T15:58:05.754Z,4.30
2024-01-07T16:00:34.417Z,4.20
2024-01-07T16:03:03.458Z,4.20
2024-01-07T16:05:32.055Z,4.30
2024-01-07T16:08:01.799Z,4.20
2024-01-07T16:10:30.646Z,4.60
2024-01-07T16:12:59.778Z,4.20
2024-01-07T16:15:28.862Z,4.10
2024-01-07T16:17:57.598Z,4.00
2024-01-07T16:20:26.210Z,4.10
2024-01-07T16:22:54.964Z,3.90
2024-01-07T16:25:25.141Z,3.90
2024-01-07T16:27:53.821Z,3.90
2024-01-07T16:30:22.602Z,3.90
2024-01-07T16:32:51.235Z,3.80
2024-01-07T16:35:19.750Z,3.70
2024-01-07T16:37:48.260Z,3.80
2024-01-07T16:40:16.959Z,3.70
2024-01-07T16:42:46.687Z,3.60
2024-01-07T16:45:15.340Z,3.60
2024-01-07T16:47:43.921Z,3.70
2024-01-07T16:50:21.827Z,3.80
2024-01-07T16:52:54.721Z,3.60
2024-01-07T16:55:23.508Z,3.70
2024-01-07T16:57:53.327Z,3.50
2024-01-07T17:00:22.329Z,3.50
2024-01-07T17:02:51.412Z,3.60
2024-01-07T17:05:20.408Z,3.50
2024-01-07T17:07:49.909Z,3.40
2024-01-07T17:10:18.644Z,3.40
2024-01-07T17:12:47.140Z,3.50
2024-01-07T17:15:16.882Z,3.30
2024-01-07T17:17:48.334Z,3.30
2024-01-07T17:20:18.468Z,3.20
2024-01-07T17:22:47.315Z,3.20
2024-01-07T17:25:15.772Z,3.20
2024-01-07T17:27:44.299Z,4.00
2024-01-07T17:30:14.568Z,3.60
2024-01-07T17:32:44.413Z,3.40
2024-01-07T17:35:13.713Z,3.30
2024-01-07T17:37:42.468Z,3.20
2024-01-07T17:40:13.916Z,3.20
2024-01-07T17:42:42.728Z,3.60
2024-01-07T17:45:12.439Z,3.30
2024-01-07T17:47:41.247Z,4.50
2024-01-07T17:50:12.797Z,3.80
2024-01-07T17:52:41.291Z,4.60
2024-01-07T17:55:10.411Z,3.70
2024-01-07T17:57:39.084Z,3.40
2024-01-07T18:00:10.332Z,3.60
2024-01-07T18:02:40.570Z,4.20
2024-01-07T18:05:11.131Z,4.90
2024-01-07T18:07:39.729Z,8.10
2024-01-07T18:10:12.295Z,5.40
2024-01-07T18:12:41.071Z,4.10
2024-01-07T18:15:10.718Z,3.90
2024-01-07T18:17:43.744Z,3.70
2024-01-07T18:20:14.153Z,3.50
2024-01-07T18:22:42.935Z,3.40
2024-01-07T18:25:12.124Z,3.00
2024-01-07T18:27:40.572Z,3.20
2024-01-07T18:30:10.214Z,3.30
2024-01-07T18:32:39.500Z,3.50
2024-01-07T18:35:09.065Z,3.30
2024-01-07T18:37:40.452Z,3.20
2024-01-07T18:40:10.775Z,3.30
2024-01-07T18:42:39.224Z,3.20
2024-01-07T18:45:08.612Z,3.30
2024-01-07T18:47:38.634Z,3.30
2024-01-07T18:50:07.441Z,3.20
2024-01-07T18:52:36.308Z,3.20
2024-01-07T18:55:08.080Z,3.40
2024-01-07T18:57:37.697Z,3.40
2024-01-07T19:00:07.105Z,3.40
2024-01-07T19:02:35.656Z,3.20
2024-01-07T19:05:04.538Z,3.00
2024-01-07T19:07:33.133Z,3.00
2024-01-07T19:10:02.091Z,2.90
2024-01-07T19:12:32.163Z,2.90
2024-01-07T19:15:00.678Z,2.80
2024-01-07T19:17:29.252Z,2.80
2024-01-07T19:19:58.567Z,2.80
2024-01-07T19:22:27.304Z,2.80
2024-01-07T19:24:55.964Z,2.90
2024-01-07T19:27:24.942Z,2.70
2024-01-07T19:29:54.601Z,3.30
2024-01-07T19:32:23.298Z,3.20
2024-01-07T19:34:53.168Z,3.20
2024-01-07T19:37:21.866Z,2.90
2024-01-07T19:39:50.342Z,2.70
2024-01-07T19:42:18.974Z,2.80
2024-01-07T19:44:47.397Z,2.70
2024-01-07T19:47:17.133Z,2.70
2024-01-07T19:49:45.999Z,2.80
2024-01-07T19:52:14.492Z,2.60
2024-01-07T19:54:43.783Z,2.60
2024-01-07T19:57:12.229Z,2.50
2024-01-07T19:59:40.755Z,2.80
2024-01-07T20:02:09.619Z,2.80
2024-01-07T20:04:40.571Z,2.70
2024-01-07T20:07:08.872Z,2.70
2024-01-07T20:09:37.587Z,2.60
2024-01-07T20:12:06.511Z,2.70
2024-01-07T20:14:36.971Z,2.60
2024-01-07T20:17:06.216Z,2.60
2024-01-07T20:19:35.595Z,2.60
2024-01-07T20:22:05.562Z,2.80
2024-01-07T20:24:35.744Z,2.90
2024-01-07T20:27:04.499Z,2.70
2024-01-07T20:29:35.872Z,2.60
2024-01-07T20:32:04.576Z,2.70
2024-01-07T20:34:33.826Z,2.70
2024-01-07T20:37:02.460Z,3.10
2024-01-07T20:39:33.610Z,3.10
2024-01-07T20:42:02.015Z,2.70
2024-01-07T20:44:30.559Z,2.70
2024-01-07T20:46:58.998Z,2.60
2024-01-07T20:49:28.247Z,2.50
2024-01-07T20:51:56.893Z,2.70
2024-01-07T20:54:25.448Z,2.50
2024-01-07T20:56:55.179Z,2.90
2024-01-07T20:59:23.811Z,2.70
2024-01-07T21:01:55.270Z,2.80
2024-01-07T21:04:24.286Z,2.50
2024-01-07T21:06:53.075Z,2.50
2024-01-07T21:09:22.585Z,2.30
2024-01-07T21:11:51.157Z,2.30
2024-01-07T21:14:20.918Z,2.20
2024-01-07T21:16:49.786Z,2.20
2024-01-07T21:19:18.474Z,2.10
2024-01-07T21:21:47.234Z,2.10
2024-01-07T21:24:15.766Z,2.10
2024-01-07T21:26:44.622Z,2.10
2024-01-07T21:29:13.561Z,2.20
2024-01-07T21:31:43.558Z,2.20
2024-01-07T21:34:12.167Z,2.20
2024-01-07T21:36:44.066Z,2.10
2024-01-07T21:39:12.514Z,1.90
2024-01-07T21:41:44.643Z,2.10
2024-01-07T21:44:13.538Z,2.20
2024-01-07T21:46:47.387Z,2.30
2024-01-07T21:49:16.588Z,2.20
2024-01-07T21:51:44.943Z,2.20
2024-01-07T21:54:13.542Z,2.30
2024-01-07T21:56:41.920Z,2.00
2024-01-07T21:59:10.686Z,2.20
2024-01-07T22:01:40.244Z,2.10
2024-01-07T22:04:09.880Z,2.10
2024-01-07T22:06:40.472Z,2.20
2024-01-07T22:09:08.955Z,2.10
2024-01-07T22:11:38.604Z,2.10
2024-01-07T22:14:07.139Z,2.00
2024-01-07T22:16:36.041Z,2.10
2024-01-07T22:19:04.841Z,2.10
2024-01-07T22:21:34.655Z,2.20
2024-01-07T22:24:03.610Z,2.20
2024-01-07T22:26:32.235Z,2.20
2024-01-07T22:29:00.966Z,2.00
2024-01-07T22:31:29.634Z,2.10
2024-01-07T22:34:00.680Z,2.00
2024-01-07T22:36:29.344Z,2.10
2024-01-07T22:38:59.086Z,2.10
2024-01-07T22:41:27.614Z,2.00
2024-01-07T22:43:57.078Z,2.00
2024-01-07T22:46:27.074Z,1.90
2024-01-07T22:48:56.009Z,1.90
2024-01-07T22:51:24.674Z,1.90
2024-01-07T22:53:53.078Z,1.80
2024-01-07T22:56:22.891Z,1.90
2024-01-07T22:58:52.169Z,1.90
2024-01-07T23:01:29.070Z,1.90
2024-01-07T23:03:58.365Z,1.90
2024-01-07T23:06:27.566Z,1.90
2024-01-07T23:08:56.684Z,1.90
2024-01-07T23:11:26.494Z,1.80
2024-01-07T23:13:55.028Z,1.80
2024-01-07T23:16:23.758Z,1.70
2024-01-07T23:18:52.449Z,1.80
2024-01-07T23:21:22.119Z,1.80
2024-01-07T23:23:50.822Z,1.80
2024-01-07T23:26:19.668Z,1.90
2024-01-07T23:28:49.400Z,1.80
2024-01-07T23:31:18.020Z,1.90
2024-01-07T23:33:46.673Z,1.90
2024-01-07T23:36:15.507Z,1.90
2024-01-07T23:38:44.481Z,1.90
2024-01-07T23:41:13.094Z,1.80
2024-01-07T23:43:41.624Z,1.90
2024-01-07T23:46:11.262Z,1.80
2024-01-07T23:48:40.143Z,1.80
2024-01-07T23:51:08.629Z,1.80
2024-01-07T23:53:37.209Z,1.80
2024-01-07T23:56:07.505Z,1.70
2024-01-07T23:58:36.083Z,1.80
